Argyle, MO

11:26 PM CDT on September 23, 2014 (GMT -0500)
Vienna, MO | Change Station
CLOSE
Current Station
Personal Weather Station
Location: Vienna, MO
Elevation: 830 ft
Nearby Weather Stations

Elev 830 ft 38.19 °N, 91.94 °W | Updated 12 minutes ago

Mostly Cloudy
Mostly Cloudy
57.9 °F
Feels Like 57.9 °F
N
0.0
Wind Variable Wind from NE

Today
High -- | Low -- °F
--% Chance of Precip.
Yesterday
High -- | Low -- °F
Precip. -- in
6:56 AM 7:03 PM
Waning Crescent, 0% visible
Pressure 30.21 in
Visibility 10.0 miles
Clouds Clear
Dew Point 54 °F
Humidity 86%
Rainfall 0.00 in
Snow Depth Not available.
UV 0 out of 12
Pollen 5.70 out of 12
Air Quality Not available.
Flu Activity Not available.
METAR KVIH 240353Z AUTO 12007KT 10SM CLR 16/09 A3023 RMK AO2 SLP230 T01560089

More Conditions Fewer Conditions

Pressure 30.21 in
Visibility 10.0 miles
Clouds Clear
Dew Point 54 °F
Humidity 86%
Rainfall 0.00 in
Snow Depth Not available.
UV 0 out of 12
Pollen 5.70 out of 12
Air Quality Not available.
Flu Activity Not available.
METAR KVIH 240353Z AUTO 12007KT 10SM CLR 16/09 A3023 RMK AO2 SLP230 T01560089

More Conditions Fewer Conditions

10-Day Weather Forecast

Almanac

Astronomy

Sep. 23, 2014 Rise Set
Actual Time 6:56 AM CDT 7:03 PM CDT
Civil Twilight 6:30 AM CDT 7:29 PM CDT
Nautical Twilight 5:59 AM CDT 8:00 PM CDT
Astronomical Twilight 5:28 AM CDT 8:31 PM CDT
Moon 6:21 AM CDT (9/23) 6:42 PM CDT (9/23)
Length of Visible Light 12h 59m
Length of Day
12h 06m
Tomorrow will be 2m 28s shorter.
Waning Crescent, 0% of the Moon is Illuminated
Sep 24
Waning Crescent
Sep 24
New
Oct 1
First Quarter
Oct 8
Full
Oct 15
Last Quarter

Today's Extremes

State Highs State Lows

Community

WunderPhotos

Upload Photos

1,755,890 photos uploaded!

WunderBlogs® & News

Nearby

Snow Depth

Station Depth Elevation
No new snow has been reported.

Earthquake Activity

City Distance Mag. Time & Date
No recent earthquake activity has been reported nearby.
Minimum magnitude displayed is 2.5.

Coastal Water Temperatures

Place Temperature
No Stations Reporting

Nearby Weather Stations